sensor_id;sensor_type;location;lat;lon;timestamp;P1;durP1;ratioP1;P2;durP2;ratioP2
30420;SDS011;17218;54.070;10.012;2023-05-09T00:01:38;1.80;;;1.70;;
30420;SDS011;17218;54.070;10.012;2023-05-09T00:04:05;3.65;;;2.20;;
30420;SDS011;17218;54.070;10.012;2023-05-09T00:06:32;2.08;;;1.88;;
30420;SDS011;17218;54.070;10.012;2023-05-09T00:08:58;3.95;;;1.67;;
30420;SDS011;17218;54.070;10.012;2023-05-09T00:11:26;3.25;;;2.10;;
30420;SDS011;17218;54.070;10.012;2023-05-09T00:13:52;3.53;;;1.70;;
30420;SDS011;17218;54.070;10.012;2023-05-09T00:16:19;2.25;;;2.05;;
30420;SDS011;17218;54.070;10.012;2023-05-09T00:18:48;3.85;;;1.70;;
30420;SDS011;17218;54.070;10.012;2023-05-09T00:21:14;3.47;;;1.92;;
30420;SDS011;17218;54.070;10.012;2023-05-09T00:23:41;3.30;;;2.15;;
30420;SDS011;17218;54.070;10.012;2023-05-09T00:26:08;2.17;;;1.98;;
30420;SDS011;17218;54.070;10.012;2023-05-09T00:28:36;3.30;;;2.05;;
30420;SDS011;17218;54.070;10.012;2023-05-09T00:31:02;4.80;;;2.08;;
30420;SDS011;17218;54.070;10.012;2023-05-09T00:33:29;2.92;;;2.10;;
30420;SDS011;17218;54.070;10.012;2023-05-09T00:35:56;3.97;;;1.95;;
30420;SDS011;17218;54.070;10.012;2023-05-09T00:38:22;2.75;;;2.10;;
30420;SDS011;17218;54.070;10.012;2023-05-09T00:40:49;4.43;;;2.40;;
30420;SDS011;17218;54.070;10.012;2023-05-09T00:43:15;3.22;;;1.98;;
30420;SDS011;17218;54.070;10.012;2023-05-09T00:45:44;4.43;;;2.03;;
30420;SDS011;17218;54.070;10.012;2023-05-09T00:48:10;3.30;;;2.00;;
30420;SDS011;17218;54.070;10.012;2023-05-09T00:50:37;2.35;;;1.98;;
30420;SDS011;17218;54.070;10.012;2023-05-09T00:53:04;3.03;;;1.90;;
30420;SDS011;17218;54.070;10.012;2023-05-09T00:55:30;3.42;;;2.35;;
30420;SDS011;17218;54.070;10.012;2023-05-09T00:57:57;4.22;;;2.00;;
30420;SDS011;17218;54.070;10.012;2023-05-09T01:00:24;2.78;;;1.98;;
30420;SDS011;17218;54.070;10.012;2023-05-09T01:02:52;4.15;;;2.10;;
30420;SDS011;17218;54.070;10.012;2023-05-09T01:05:20;3.83;;;2.25;;
30420;SDS011;17218;54.070;10.012;2023-05-09T01:07:51;2.83;;;2.33;;
30420;SDS011;17218;54.070;10.012;2023-05-09T01:10:26;4.70;;;2.10;;
30420;SDS011;17218;54.070;10.012;2023-05-09T01:13:01;3.70;;;2.38;;
30420;SDS011;17218;54.070;10.012;2023-05-09T01:15:33;3.13;;;2.35;;
30420;SDS011;17218;54.070;10.012;2023-05-09T01:18:07;2.40;;;2.20;;
30420;SDS011;17218;54.070;10.012;2023-05-09T01:20:38;3.65;;;2.05;;
30420;SDS011;17218;54.070;10.012;2023-05-09T01:23:27;3.72;;;2.10;;
30420;SDS011;17218;54.070;10.012;2023-05-09T01:26:09;4.22;;;2.20;;
30420;SDS011;17218;54.070;10.012;2023-05-09T01:28:50;3.83;;;1.92;;
30420;SDS011;17218;54.070;10.012;2023-05-09T01:31:27;6.38;;;2.58;;
30420;SDS011;17218;54.070;10.012;2023-05-09T01:33:57;2.80;;;2.05;;
30420;SDS011;17218;54.070;10.012;2023-05-09T01:36:29;3.92;;;2.47;;
30420;SDS011;17218;54.070;10.012;2023-05-09T01:38:57;4.03;;;2.20;;
30420;SDS011;17218;54.070;10.012;2023-05-09T01:41:24;2.85;;;2.40;;
30420;SDS011;17218;54.070;10.012;2023-05-09T01:43:56;2.45;;;2.25;;
30420;SDS011;17218;54.070;10.012;2023-05-09T01:46:28;3.15;;;2.50;;
30420;SDS011;17218;54.070;10.012;2023-05-09T01:48:56;3.67;;;2.60;;
30420;SDS011;17218;54.070;10.012;2023-05-09T01:51:23;2.70;;;2.10;;
30420;SDS011;17218;54.070;10.012;2023-05-09T01:53:52;3.42;;;2.20;;
30420;SDS011;17218;54.070;10.012;2023-05-09T01:56:19;3.53;;;2.28;;
30420;SDS011;17218;54.070;10.012;2023-05-09T01:58:47;3.88;;;2.70;;
30420;SDS011;17218;54.070;10.012;2023-05-09T02:01:15;3.58;;;2.55;;
30420;SDS011;17218;54.070;10.012;2023-05-09T02:03:46;3.15;;;2.55;;
30420;SDS011;17218;54.070;10.012;2023-05-09T02:06:14;4.55;;;2.53;;
30420;SDS011;17218;54.070;10.012;2023-05-09T02:08:43;3.38;;;2.80;;
30420;SDS011;17218;54.070;10.012;2023-05-09T02:11:09;4.63;;;2.50;;
30420;SDS011;17218;54.070;10.012;2023-05-09T02:13:36;3.83;;;2.60;;
30420;SDS011;17218;54.070;10.012;2023-05-09T02:16:03;6.25;;;3.05;;
30420;SDS011;17218;54.070;10.012;2023-05-09T02:18:31;3.72;;;2.40;;
30420;SDS011;17218;54.070;10.012;2023-05-09T02:21:00;3.75;;;2.70;;
30420;SDS011;17218;54.070;10.012;2023-05-09T02:23:27;3.33;;;2.88;;
30420;SDS011;17218;54.070;10.012;2023-05-09T02:25:53;3.00;;;2.70;;
30420;SDS011;17218;54.070;10.012;2023-05-09T02:28:20;2.60;;;2.40;;
30420;SDS011;17218;54.070;10.012;2023-05-09T02:30:48;5.40;;;3.10;;
30420;SDS011;17218;54.070;10.012;2023-05-09T02:33:16;5.43;;;2.65;;
30420;SDS011;17218;54.070;10.012;2023-05-09T02:35:43;3.50;;;3.20;;
30420;SDS011;17218;54.070;10.012;2023-05-09T02:38:13;2.92;;;2.60;;
30420;SDS011;17218;54.070;10.012;2023-05-09T02:40:41;3.28;;;2.80;;
30420;SDS011;17218;54.070;10.012;2023-05-09T02:43:08;4.30;;;2.85;;
30420;SDS011;17218;54.070;10.012;2023-05-09T02:45:35;3.58;;;2.92;;
30420;SDS011;17218;54.070;10.012;2023-05-09T02:48:01;3.85;;;2.80;;
30420;SDS011;17218;54.070;10.012;2023-05-09T02:50:28;3.88;;;2.97;;
30420;SDS011;17218;54.070;10.012;2023-05-09T02:52:54;3.78;;;2.83;;
30420;SDS011;17218;54.070;10.012;2023-05-09T02:55:22;3.53;;;2.80;;
30420;SDS011;17218;54.070;10.012;2023-05-09T02:57:49;3.47;;;3.17;;
30420;SDS011;17218;54.070;10.012;2023-05-09T03:00:16;5.93;;;3.47;;
30420;SDS011;17218;54.070;10.012;2023-05-09T03:02:43;4.85;;;3.45;;
30420;SDS011;17218;54.070;10.012;2023-05-09T03:05:11;3.50;;;3.08;;
30420;SDS011;17218;54.070;10.012;2023-05-09T03:07:37;4.90;;;3.20;;
30420;SDS011;17218;54.070;10.012;2023-05-09T03:10:04;5.38;;;3.30;;
30420;SDS011;17218;54.070;10.012;2023-05-09T03:12:32;4.32;;;3.08;;
30420;SDS011;17218;54.070;10.012;2023-05-09T03:14:59;6.68;;;3.80;;
30420;SDS011;17218;54.070;10.012;2023-05-09T03:17:26;3.80;;;3.30;;
30420;SDS011;17218;54.070;10.012;2023-05-09T03:19:52;7.22;;;3.40;;
30420;SDS011;17218;54.070;10.012;2023-05-09T03:22:19;5.00;;;3.35;;
30420;SDS011;17218;54.070;10.012;2023-05-09T03:24:45;5.55;;;3.17;;
30420;SDS011;17218;54.070;10.012;2023-05-09T03:27:11;5.32;;;3.88;;
30420;SDS011;17218;54.070;10.012;2023-05-09T03:29:39;5.90;;;3.88;;
30420;SDS011;17218;54.070;10.012;2023-05-09T03:32:06;3.50;;;3.20;;
30420;SDS011;17218;54.070;10.012;2023-05-09T03:34:32;4.13;;;3.72;;
30420;SDS011;17218;54.070;10.012;2023-05-09T03:36:59;4.20;;;3.75;;
30420;SDS011;17218;54.070;10.012;2023-05-09T03:39:25;4.43;;;3.20;;
30420;SDS011;17218;54.070;10.012;2023-05-09T03:41:52;4.78;;;3.53;;
30420;SDS011;17218;54.070;10.012;2023-05-09T03:44:18;3.78;;;3.42;;
30420;SDS011;17218;54.070;10.012;2023-05-09T03:46:46;4.22;;;3.83;;
30420;SDS011;17218;54.070;10.012;2023-05-09T03:49:13;4.25;;;3.85;;
30420;SDS011;17218;54.070;10.012;2023-05-09T03:51:39;3.75;;;3.38;;
30420;SDS011;17218;54.070;10.012;2023-05-09T03:54:06;3.72;;;3.35;;
30420;SDS011;17218;54.070;10.012;2023-05-09T03:56:32;5.28;;;4.00;;
30420;SDS011;17218;54.070;10.012;2023-05-09T03:58:59;5.10;;;3.90;;
30420;SDS011;17218;54.070;10.012;2023-05-09T04:01:25;3.88;;;3.50;;
30420;SDS011;17218;54.070;10.012;2023-05-09T04:03:53;4.53;;;3.80;;
30420;SDS011;17218;54.070;10.012;2023-05-09T04:06:21;4.93;;;4.10;;
30420;SDS011;17218;54.070;10.012;2023-05-09T04:08:47;4.35;;;3.50;;
30420;SDS011;17218;54.070;10.012;2023-05-09T04:11:14;5.28;;;4.13;;
30420;SDS011;17218;54.070;10.012;2023-05-09T04:13:41;5.05;;;3.70;;
30420;SDS011;17218;54.070;10.012;2023-05-09T04:16:07;5.97;;;4.47;;
30420;SDS011;17218;54.070;10.012;2023-05-09T04:18:35;4.32;;;3.80;;
30420;SDS011;17218;54.070;10.012;2023-05-09T04:21:05;4.20;;;3.38;;
30420;SDS011;17218;54.070;10.012;2023-05-09T04:23:31;6.45;;;4.15;;
30420;SDS011;17218;54.070;10.012;2023-05-09T04:25:58;3.70;;;3.40;;
30420;SDS011;17218;54.070;10.012;2023-05-09T04:28:24;5.75;;;4.03;;
30420;SDS011;17218;54.070;10.012;2023-05-09T04:30:51;4.03;;;3.63;;
30420;SDS011;17218;54.070;10.012;2023-05-09T04:33:17;5.03;;;3.58;;
30420;SDS011;17218;54.070;10.012;2023-05-09T04:35:44;5.18;;;4.15;;
30420;SDS011;17218;54.070;10.012;2023-05-09T04:38:11;4.45;;;3.92;;
30420;SDS011;17218;54.070;10.012;2023-05-09T04:40:38;5.25;;;4.00;;
30420;SDS011;17218;54.070;10.012;2023-05-09T04:43:04;4.03;;;3.58;;
30420;SDS011;17218;54.070;10.012;2023-05-09T04:45:31;4.40;;;3.97;;
30420;SDS011;17218;54.070;10.012;2023-05-09T04:47:57;4.63;;;4.05;;
30420;SDS011;17218;54.070;10.012;2023-05-09T04:50:24;5.32;;;4.43;;
30420;SDS011;17218;54.070;10.012;2023-05-09T04:52:50;5.75;;;4.47;;
30420;SDS011;17218;54.070;10.012;2023-05-09T04:55:18;4.50;;;3.90;;
30420;SDS011;17218;54.070;10.012;2023-05-09T04:57:45;5.18;;;4.18;;
30420;SDS011;17218;54.070;10.012;2023-05-09T05:00:12;4.18;;;3.78;;
30420;SDS011;17218;54.070;10.012;2023-05-09T05:02:40;5.45;;;4.05;;
30420;SDS011;17218;54.070;10.012;2023-05-09T05:05:07;6.72;;;4.15;;
30420;SDS011;17218;54.070;10.012;2023-05-09T05:07:33;6.30;;;3.88;;
30420;SDS011;17218;54.070;10.012;2023-05-09T05:10:00;5.68;;;4.30;;
30420;SDS011;17218;54.070;10.012;2023-05-09T05:12:28;5.78;;;3.85;;
30420;SDS011;17218;54.070;10.012;2023-05-09T05:14:54;6.80;;;4.13;;
30420;SDS011;17218;54.070;10.012;2023-05-09T05:17:21;4.00;;;3.60;;
30420;SDS011;17218;54.070;10.012;2023-05-09T05:19:48;4.55;;;3.80;;
30420;SDS011;17218;54.070;10.012;2023-05-09T05:22:15;4.45;;;4.05;;
30420;SDS011;17218;54.070;10.012;2023-05-09T05:24:41;7.43;;;4.20;;
30420;SDS011;17218;54.070;10.012;2023-05-09T05:27:08;5.68;;;4.82;;
30420;SDS011;17218;54.070;10.012;2023-05-09T05:29:36;5.95;;;4.28;;
30420;SDS011;17218;54.070;10.012;2023-05-09T05:32:02;5.95;;;3.83;;
30420;SDS011;17218;54.070;10.012;2023-05-09T05:34:28;4.68;;;4.15;;
30420;SDS011;17218;54.070;10.012;2023-05-09T05:36:55;4.95;;;3.83;;
30420;SDS011;17218;54.070;10.012;2023-05-09T05:39:21;4.63;;;4.15;;
30420;SDS011;17218;54.070;10.012;2023-05-09T05:41:48;5.40;;;4.32;;
30420;SDS011;17218;54.070;10.012;2023-05-09T05:44:15;4.22;;;3.92;;
30420;SDS011;17218;54.070;10.012;2023-05-09T05:46:43;7.07;;;4.72;;
30420;SDS011;17218;54.070;10.012;2023-05-09T05:49:10;7.28;;;4.25;;
30420;SDS011;17218;54.070;10.012;2023-05-09T05:51:36;5.57;;;4.43;;
30420;SDS011;17218;54.070;10.012;2023-05-09T05:54:03;4.05;;;3.65;;
30420;SDS011;17218;54.070;10.012;2023-05-09T05:56:30;5.22;;;3.95;;
30420;SDS011;17218;54.070;10.012;2023-05-09T05:58:56;5.13;;;4.00;;
30420;SDS011;17218;54.070;10.012;2023-05-09T06:01:22;4.70;;;4.20;;
30420;SDS011;17218;54.070;10.012;2023-05-09T06:03:50;7.38;;;4.07;;
30420;SDS011;17218;54.070;10.012;2023-05-09T06:06:19;6.03;;;3.80;;
30420;SDS011;17218;54.070;10.012;2023-05-09T06:08:45;8.20;;;3.83;;
30420;SDS011;17218;54.070;10.012;2023-05-09T06:11:13;6.95;;;4.07;;
30420;SDS011;17218;54.070;10.012;2023-05-09T06:13:40;5.10;;;3.90;;
30420;SDS011;17218;54.070;10.012;2023-05-09T06:16:06;5.65;;;4.00;;
30420;SDS011;17218;54.070;10.012;2023-05-09T06:18:33;6.55;;;4.00;;
30420;SDS011;17218;54.070;10.012;2023-05-09T06:21:03;6.15;;;4.05;;
30420;SDS011;17218;54.070;10.012;2023-05-09T06:23:29;7.63;;;3.88;;
30420;SDS011;17218;54.070;10.012;2023-05-09T06:25:56;4.32;;;3.92;;
30420;SDS011;17218;54.070;10.012;2023-05-09T06:28:22;6.07;;;4.30;;
30420;SDS011;17218;54.070;10.012;2023-05-09T06:30:49;4.45;;;4.05;;
30420;SDS011;17218;54.070;10.012;2023-05-09T06:33:15;4.82;;;3.42;;
30420;SDS011;17218;54.070;10.012;2023-05-09T06:35:42;4.65;;;4.10;;
30420;SDS011;17218;54.070;10.012;2023-05-09T06:38:10;3.88;;;3.58;;
30420;SDS011;17218;54.070;10.012;2023-05-09T06:40:37;4.80;;;4.10;;
30420;SDS011;17218;54.070;10.012;2023-05-09T06:43:03;4.03;;;3.50;;
30420;SDS011;17218;54.070;10.012;2023-05-09T06:45:30;5.88;;;3.80;;
30420;SDS011;17218;54.070;10.012;2023-05-09T06:47:56;8.07;;;3.78;;
30420;SDS011;17218;54.070;10.012;2023-05-09T06:50:22;4.80;;;3.60;;
30420;SDS011;17218;54.070;10.012;2023-05-09T06:52:49;4.28;;;3.88;;
30420;SDS011;17218;54.070;10.012;2023-05-09T06:55:17;5.35;;;3.70;;
30420;SDS011;17218;54.070;10.012;2023-05-09T06:57:43;5.97;;;3.97;;
30420;SDS011;17218;54.070;10.012;2023-05-09T07:00:10;6.25;;;3.58;;
30420;SDS011;17218;54.070;10.012;2023-05-09T07:02:37;4.88;;;3.80;;
30420;SDS011;17218;54.070;10.012;2023-05-09T07:05:06;5.82;;;4.53;;
30420;SDS011;17218;54.070;10.012;2023-05-09T07:07:33;7.82;;;4.00;;
30420;SDS011;17218;54.070;10.012;2023-05-09T07:09:59;5.70;;;3.60;;
30420;SDS011;17218;54.070;10.012;2023-05-09T07:12:30;5.75;;;3.78;;
30420;SDS011;17218;54.070;10.012;2023-05-09T07:14:57;4.90;;;3.72;;
30420;SDS011;17218;54.070;10.012;2023-05-09T07:17:24;5.57;;;4.13;;
30420;SDS011;17218;54.070;10.012;2023-05-09T07:19:50;9.25;;;4.20;;
30420;SDS011;17218;54.070;10.012;2023-05-09T07:22:17;4.80;;;3.75;;
30420;SDS011;17218;54.070;10.012;2023-05-09T07:24:43;4.03;;;3.63;;
30420;SDS011;17218;54.070;10.012;2023-05-09T07:27:10;3.78;;;3.45;;
30420;SDS011;17218;54.070;10.012;2023-05-09T07:29:38;4.45;;;3.35;;
30420;SDS011;17218;54.070;10.012;2023-05-09T07:32:04;5.05;;;3.88;;
30420;SDS011;17218;54.070;10.012;2023-05-09T07:34:31;4.43;;;3.90;;
30420;SDS011;17218;54.070;10.012;2023-05-09T07:36:57;4.28;;;3.88;;
30420;SDS011;17218;54.070;10.012;2023-05-09T07:39:24;4.38;;;3.97;;
30420;SDS011;17218;54.070;10.012;2023-05-09T07:41:50;4.00;;;3.60;;
30420;SDS011;17218;54.070;10.012;2023-05-09T07:44:17;4.43;;;3.53;;
30420;SDS011;17218;54.070;10.012;2023-05-09T07:46:45;5.25;;;3.50;;
30420;SDS011;17218;54.070;10.012;2023-05-09T07:49:11;3.85;;;3.30;;
30420;SDS011;17218;54.070;10.012;2023-05-09T07:51:37;4.07;;;3.42;;
30420;SDS011;17218;54.070;10.012;2023-05-09T07:54:04;3.58;;;3.20;;
30420;SDS011;17218;54.070;10.012;2023-05-09T07:56:30;4.82;;;3.60;;
30420;SDS011;17218;54.070;10.012;2023-05-09T07:58:57;4.93;;;3.60;;
30420;SDS011;17218;54.070;10.012;2023-05-09T08:01:23;3.20;;;2.90;;
30420;SDS011;17218;54.070;10.012;2023-05-09T08:03:51;5.65;;;3.20;;
30420;SDS011;17218;54.070;10.012;2023-05-09T08:06:18;6.28;;;3.75;;
30420;SDS011;17218;54.070;10.012;2023-05-09T08:08:44;4.18;;;3.50;;
30420;SDS011;17218;54.070;10.012;2023-05-09T08:11:11;3.95;;;3.33;;
30420;SDS011;17218;54.070;10.012;2023-05-09T08:13:37;3.88;;;3.47;;
30420;SDS011;17218;54.070;10.012;2023-05-09T08:16:04;4.05;;;3.58;;
30420;SDS011;17218;54.070;10.012;2023-05-09T08:18:31;7.10;;;3.75;;
30420;SDS011;17218;54.070;10.012;2023-05-09T08:20:58;4.78;;;3.45;;
30420;SDS011;17218;54.070;10.012;2023-05-09T08:23:25;3.97;;;3.58;;
30420;SDS011;17218;54.070;10.012;2023-05-09T08:25:52;7.15;;;3.30;;
30420;SDS011;17218;54.070;10.012;2023-05-09T08:28:19;5.07;;;3.20;;
30420;SDS011;17218;54.070;10.012;2023-05-09T08:30:48;5.03;;;3.60;;
30420;SDS011;17218;54.070;10.012;2023-05-09T08:33:14;4.63;;;3.60;;
30420;SDS011;17218;54.070;10.012;2023-05-09T08:35:41;4.70;;;3.90;;
30420;SDS011;17218;54.070;10.012;2023-05-09T08:38:08;6.38;;;3.65;;
30420;SDS011;17218;54.070;10.012;2023-05-09T08:40:35;4.88;;;3.58;;
30420;SDS011;17218;54.070;10.012;2023-05-09T08:43:02;4.13;;;3.15;;
30420;SDS011;17218;54.070;10.012;2023-05-09T08:45:32;4.38;;;3.95;;
30420;SDS011;17218;54.070;10.012;2023-05-09T08:48:01;5.57;;;3.30;;
30420;SDS011;17218;54.070;10.012;2023-05-09T08:50:28;4.03;;;3.25;;
30420;SDS011;17218;54.070;10.012;2023-05-09T08:52:55;4.50;;;3.20;;
30420;SDS011;17218;54.070;10.012;2023-05-09T08:55:23;4.00;;;3.42;;
30420;SDS011;17218;54.070;10.012;2023-05-09T08:57:50;5.55;;;3.42;;
30420;SDS011;17218;54.070;10.012;2023-05-09T09:00:17;4.05;;;3.60;;
30420;SDS011;17218;54.070;10.012;2023-05-09T09:02:45;5.65;;;3.40;;
30420;SDS011;17218;54.070;10.012;2023-05-09T09:05:12;3.58;;;3.13;;
30420;SDS011;17218;54.070;10.012;2023-05-09T09:07:39;5.45;;;3.45;;
30420;SDS011;17218;54.070;10.012;2023-05-09T09:10:07;3.83;;;3.50;;
30420;SDS011;17218;54.070;10.012;2023-05-09T09:12:37;5.18;;;3.20;;
30420;SDS011;17218;54.070;10.012;2023-05-09T09:15:05;5.13;;;3.28;;
30420;SDS011;17218;54.070;10.012;2023-05-09T09:17:40;4.78;;;3.00;;
30420;SDS011;17218;54.070;10.012;2023-05-09T09:20:09;5.93;;;3.38;;
30420;SDS011;17218;54.070;10.012;2023-05-09T09:22:40;6.20;;;3.40;;
30420;SDS011;17218;54.070;10.012;2023-05-09T09:25:08;3.33;;;3.03;;
30420;SDS011;17218;54.070;10.012;2023-05-09T09:27:38;5.05;;;3.03;;
30420;SDS011;17218;54.070;10.012;2023-05-09T09:30:06;5.60;;;3.60;;
30420;SDS011;17218;54.070;10.012;2023-05-09T09:32:33;3.97;;;3.20;;
30420;SDS011;17218;54.070;10.012;2023-05-09T09:35:03;5.47;;;3.53;;
30420;SDS011;17218;54.070;10.012;2023-05-09T09:37:32;4.50;;;3.10;;
30420;SDS011;17218;54.070;10.012;2023-05-09T09:39:59;7.22;;;3.25;;
30420;SDS011;17218;54.070;10.012;2023-05-09T09:42:26;4.07;;;2.80;;
30420;SDS011;17218;54.070;10.012;2023-05-09T09:44:56;3.20;;;2.63;;
30420;SDS011;17218;54.070;10.012;2023-05-09T09:47:30;4.53;;;2.92;;
30420;SDS011;17218;54.070;10.012;2023-05-09T09:49:57;3.20;;;2.90;;
30420;SDS011;17218;54.070;10.012;2023-05-09T09:52:35;5.43;;;2.88;;
30420;SDS011;17218;54.070;10.012;2023-05-09T09:55:01;3.25;;;2.95;;
30420;SDS011;17218;54.070;10.012;2023-05-09T09:57:32;3.10;;;2.80;;
30420;SDS011;17218;54.070;10.012;2023-05-09T10:00:01;3.75;;;2.97;;
30420;SDS011;17218;54.070;10.012;2023-05-09T10:02:30;10.80;;;3.33;;
30420;SDS011;17218;54.070;10.012;2023-05-09T10:04:56;3.25;;;2.85;;
30420;SDS011;17218;54.070;10.012;2023-05-09T10:07:32;3.35;;;3.05;;
30420;SDS011;17218;54.070;10.012;2023-05-09T10:09:59;4.18;;;2.67;;
30420;SDS011;17218;54.070;10.012;2023-05-09T10:12:30;4.80;;;2.53;;
30420;SDS011;17218;54.070;10.012;2023-05-09T10:14:58;2.70;;;2.45;;
30420;SDS011;17218;54.070;10.012;2023-05-09T10:17:27;4.32;;;2.60;;
30420;SDS011;17218;54.070;10.012;2023-05-09T10:19:55;8.18;;;2.90;;
30420;SDS011;17218;54.070;10.012;2023-05-09T10:22:22;3.65;;;2.33;;
30420;SDS011;17218;54.070;10.012;2023-05-09T10:24:50;5.38;;;2.50;;
30420;SDS011;17218;54.070;10.012;2023-05-09T10:27:26;4.15;;;2.55;;
30420;SDS011;17218;54.070;10.012;2023-05-09T10:29:56;4.10;;;2.55;;
30420;SDS011;17218;54.070;10.012;2023-05-09T10:32:38;2.83;;;2.63;;
30420;SDS011;17218;54.070;10.012;2023-05-09T10:35:09;4.60;;;2.72;;
30420;SDS011;17218;54.070;10.012;2023-05-09T10:37:37;3.70;;;2.88;;
30420;SDS011;17218;54.070;10.012;2023-05-09T10:40:05;2.95;;;2.50;;
30420;SDS011;17218;54.070;10.012;2023-05-09T10:42:32;5.15;;;3.13;;
30420;SDS011;17218;54.070;10.012;2023-05-09T10:45:00;2.60;;;2.40;;
30420;SDS011;17218;54.070;10.012;2023-05-09T10:47:27;3.75;;;2.50;;
30420;SDS011;17218;54.070;10.012;2023-05-09T10:49:57;5.03;;;2.05;;
30420;SDS011;17218;54.070;10.012;2023-05-09T10:52:24;3.08;;;2.50;;
30420;SDS011;17218;54.070;10.012;2023-05-09T10:54:57;3.63;;;2.50;;
30420;SDS011;17218;54.070;10.012;2023-05-09T10:57:25;4.00;;;2.15;;
30420;SDS011;17218;54.070;10.012;2023-05-09T10:59:52;5.00;;;2.30;;
30420;SDS011;17218;54.070;10.012;2023-05-09T11:02:20;3.47;;;2.40;;
30420;SDS011;17218;54.070;10.012;2023-05-09T11:04:48;4.97;;;2.50;;
30420;SDS011;17218;54.070;10.012;2023-05-09T11:07:35;2.80;;;2.30;;
30420;SDS011;17218;54.070;10.012;2023-05-09T11:10:08;2.40;;;2.20;;
30420;SDS011;17218;54.070;10.012;2023-05-09T11:12:51;5.22;;;2.47;;
30420;SDS011;17218;54.070;10.012;2023-05-09T11:15:19;3.42;;;2.13;;
30420;SDS011;17218;54.070;10.012;2023-05-09T11:17:46;3.13;;;2.17;;
30420;SDS011;17218;54.070;10.012;2023-05-09T11:20:16;2.50;;;2.03;;
30420;SDS011;17218;54.070;10.012;2023-05-09T11:22:44;5.30;;;2.53;;
30420;SDS011;17218;54.070;10.012;2023-05-09T11:25:12;4.43;;;2.50;;
30420;SDS011;17218;54.070;10.012;2023-05-09T11:27:41;3.42;;;2.35;;
30420;SDS011;17218;54.070;10.012;2023-05-09T11:30:09;6.10;;;2.42;;
30420;SDS011;17218;54.070;10.012;2023-05-09T11:32:45;3.35;;;2.40;;
30420;SDS011;17218;54.070;10.012;2023-05-09T11:35:13;3.45;;;2.10;;
30420;SDS011;17218;54.070;10.012;2023-05-09T11:37:46;3.10;;;1.92;;
30420;SDS011;17218;54.070;10.012;2023-05-09T11:40:14;3.20;;;2.17;;
30420;SDS011;17218;54.070;10.012;2023-05-09T11:42:43;2.72;;;2.50;;
30420;SDS011;17218;54.070;10.012;2023-05-09T11:45:11;4.53;;;2.28;;
30420;SDS011;17218;54.070;10.012;2023-05-09T11:47:39;3.78;;;2.08;;
30420;SDS011;17218;54.070;10.012;2023-05-09T11:50:06;2.40;;;2.20;;
30420;SDS011;17218;54.070;10.012;2023-05-09T11:52:34;2.70;;;2.50;;
30420;SDS011;17218;54.070;10.012;2023-05-09T11:55:04;4.35;;;2.40;;
30420;SDS011;17218;54.070;10.012;2023-05-09T11:57:31;3.22;;;2.20;;
30420;SDS011;17218;54.070;10.012;2023-05-09T11:59:58;4.40;;;2.25;;
30420;SDS011;17218;54.070;10.012;2023-05-09T12:02:28;3.22;;;2.13;;
30420;SDS011;17218;54.070;10.012;2023-05-09T12:04:54;7.68;;;2.55;;
30420;SDS011;17218;54.070;10.012;2023-05-09T12:07:21;2.40;;;1.95;;
30420;SDS011;17218;54.070;10.012;2023-05-09T12:09:48;3.65;;;2.83;;
30420;SDS011;17218;54.070;10.012;2023-05-09T12:12:16;5.63;;;2.80;;
30420;SDS011;17218;54.070;10.012;2023-05-09T12:14:45;4.53;;;2.20;;
30420;SDS011;17218;54.070;10.012;2023-05-09T12:17:13;2.50;;;1.92;;
30420;SDS011;17218;54.070;10.012;2023-05-09T12:19:40;2.47;;;2.28;;
30420;SDS011;17218;54.070;10.012;2023-05-09T12:22:06;4.60;;;2.20;;
30420;SDS011;17218;54.070;10.012;2023-05-09T12:24:34;3.42;;;2.10;;
30420;SDS011;17218;54.070;10.012;2023-05-09T12:27:01;2.55;;;1.88;;
30420;SDS011;17218;54.070;10.012;2023-05-09T12:29:30;3.70;;;1.80;;
30420;SDS011;17218;54.070;10.012;2023-05-09T12:31:56;3.60;;;1.77;;
30420;SDS011;17218;54.070;10.012;2023-05-09T12:34:24;5.68;;;2.15;;
30420;SDS011;17218;54.070;10.012;2023-05-09T12:36:51;3.92;;;2.22;;
30420;SDS011;17218;54.070;10.012;2023-05-09T12:39:18;3.88;;;1.80;;
30420;SDS011;17218;54.070;10.012;2023-05-09T12:41:47;4.30;;;2.72;;
30420;SDS011;17218;54.070;10.012;2023-05-09T12:44:18;3.42;;;2.30;;
30420;SDS011;17218;54.070;10.012;2023-05-09T12:46:55;2.78;;;1.92;;
30420;SDS011;17218;54.070;10.012;2023-05-09T12:49:22;4.72;;;2.00;;
30420;SDS011;17218;54.070;10.012;2023-05-09T12:51:49;3.67;;;2.30;;
30420;SDS011;17218;54.070;10.012;2023-05-09T12:54:20;2.22;;;2.03;;
30420;SDS011;17218;54.070;10.012;2023-05-09T12:56:48;5.85;;;1.92;;
30420;SDS011;17218;54.070;10.012;2023-05-09T12:59:19;3.72;;;1.70;;
30420;SDS011;17218;54.070;10.012;2023-05-09T13:01:54;5.18;;;1.95;;
30420;SDS011;17218;54.070;10.012;2023-05-09T13:04:22;2.20;;;2.00;;
30420;SDS011;17218;54.070;10.012;2023-05-09T13:06:51;3.42;;;2.20;;
30420;SDS011;17218;54.070;10.012;2023-05-09T13:09:19;2.90;;;2.03;;
30420;SDS011;17218;54.070;10.012;2023-05-09T13:11:47;1.98;;;1.77;;
30420;SDS011;17218;54.070;10.012;2023-05-09T13:14:14;3.17;;;1.90;;
30420;SDS011;17218;54.070;10.012;2023-05-09T13:16:41;4.22;;;2.33;;
30420;SDS011;17218;54.070;10.012;2023-05-09T13:19:09;2.58;;;2.15;;
30420;SDS011;17218;54.070;10.012;2023-05-09T13:21:36;3.75;;;2.10;;
30420;SDS011;17218;54.070;10.012;2023-05-09T13:24:02;6.20;;;2.00;;
30420;SDS011;17218;54.070;10.012;2023-05-09T13:26:30;4.50;;;2.15;;
30420;SDS011;17218;54.070;10.012;2023-05-09T13:28:56;2.40;;;2.20;;
30420;SDS011;17218;54.070;10.012;2023-05-09T13:31:23;4.90;;;2.08;;
30420;SDS011;17218;54.070;10.012;2023-05-09T13:33:50;5.30;;;2.42;;
30420;SDS011;17218;54.070;10.012;2023-05-09T13:36:18;2.90;;;2.08;;
30420;SDS011;17218;54.070;10.012;2023-05-09T13:38:45;2.53;;;1.80;;
30420;SDS011;17218;54.070;10.012;2023-05-09T13:41:11;3.35;;;2.10;;
30420;SDS011;17218;54.070;10.012;2023-05-09T13:43:43;4.50;;;2.05;;
30420;SDS011;17218;54.070;10.012;2023-05-09T13:46:10;4.28;;;2.00;;
30420;SDS011;17218;54.070;10.012;2023-05-09T13:48:37;2.90;;;1.90;;
30420;SDS011;17218;54.070;10.012;2023-05-09T13:51:03;3.15;;;2.20;;
30420;SDS011;17218;54.070;10.012;2023-05-09T13:53:32;4.45;;;2.35;;
30420;SDS011;17218;54.070;10.012;2023-05-09T13:55:59;4.88;;;2.20;;
30420;SDS011;17218;54.070;10.012;2023-05-09T13:58:25;3.35;;;2.28;;
30420;SDS011;17218;54.070;10.012;2023-05-09T14:00:53;3.38;;;2.00;;
30420;SDS011;17218;54.070;10.012;2023-05-09T14:03:19;3.65;;;2.38;;
30420;SDS011;17218;54.070;10.012;2023-05-09T14:05:46;2.58;;;2.10;;
30420;SDS011;17218;54.070;10.012;2023-05-09T14:08:13;3.70;;;2.08;;
30420;SDS011;17218;54.070;10.012;2023-05-09T14:10:41;3.85;;;2.17;;
30420;SDS011;17218;54.070;10.012;2023-05-09T14:13:08;4.20;;;2.10;;
30420;SDS011;17218;54.070;10.012;2023-05-09T14:15:36;2.15;;;1.90;;
30420;SDS011;17218;54.070;10.012;2023-05-09T14:18:03;4.20;;;2.03;;
30420;SDS011;17218;54.070;10.012;2023-05-09T14:20:30;3.47;;;2.28;;
30420;SDS011;17218;54.070;10.012;2023-05-09T14:22:56;4.70;;;2.13;;
30420;SDS011;17218;54.070;10.012;2023-05-09T14:25:24;2.85;;;1.98;;
30420;SDS011;17218;54.070;10.012;2023-05-09T14:27:52;3.55;;;2.15;;
30420;SDS011;17218;54.070;10.012;2023-05-09T14:30:19;4.65;;;1.95;;
30420;SDS011;17218;54.070;10.012;2023-05-09T14:32:45;5.15;;;2.28;;
30420;SDS011;17218;54.070;10.012;2023-05-09T14:35:12;4.15;;;2.17;;
30420;SDS011;17218;54.070;10.012;2023-05-09T14:37:38;4.88;;;2.10;;